createdAt,value
2018-11-23T00:00:00.525Z,3.83
2018-11-23T00:00:04.998Z,3.83
2018-11-23T00:00:09.313Z,3.83
2018-11-23T00:00:13.626Z,3.83
2018-11-23T00:00:17.933Z,3.84
2018-11-23T00:00:22.289Z,3.83
2018-11-23T00:00:26.502Z,3.83
2018-11-23T00:00:30.807Z,3.84
2018-11-23T00:00:35.125Z,3.84
2018-11-23T00:00:39.437Z,3.84
2018-11-23T00:00:43.749Z,3.84
2018-11-23T00:00:47.994Z,3.84
2018-11-23T00:00:52.311Z,3.83
2018-11-23T00:00:56.537Z,3.84
2018-11-23T00:01:00.854Z,3.84
2018-11-23T00:01:05.168Z,3.85
2018-11-23T00:01:09.478Z,3.85
2018-11-23T00:01:13.787Z,3.85
2018-11-23T00:01:18.106Z,3.86
2018-11-23T00:01:22.427Z,3.86
2018-11-23T00:01:26.731Z,3.85
2018-11-23T00:01:30.942Z,3.85
2018-11-23T00:01:35.292Z,3.85
2018-11-23T00:01:39.605Z,3.85
2018-11-23T00:01:43.913Z,3.86
2018-11-23T00:01:48.228Z,3.86
2018-11-23T00:01:52.534Z,3.86
2018-11-23T00:01:56.845Z,3.86
2018-11-23T00:02:01.151Z,3.86
2018-11-23T00:02:05.459Z,3.86
2018-11-23T00:02:09.780Z,3.86
2018-11-23T00:02:14.090Z,3.86
2018-11-23T00:02:18.397Z,3.86
2018-11-23T00:02:22.737Z,3.87
2018-11-23T00:02:27.046Z,3.86
2018-11-23T00:02:31.355Z,3.86
2018-11-23T00:02:35.668Z,3.87
2018-11-23T00:02:39.990Z,3.86
2018-11-23T00:02:44.328Z,3.87
2018-11-23T00:02:48.645Z,3.88
2018-11-23T00:02:52.957Z,3.87
2018-11-23T00:02:57.297Z,3.87
2018-11-23T00:03:01.623Z,3.88
2018-11-23T00:03:05.934Z,3.86
2018-11-23T00:03:10.239Z,3.87
2018-11-23T00:03:14.553Z,3.87
2018-11-23T00:03:18.863Z,3.87
2018-11-23T00:03:23.172Z,3.88
2018-11-23T00:03:27.477Z,3.88
2018-11-23T00:03:31.781Z,3.88
2018-11-23T00:03:36.098Z,3.88
2018-11-23T00:03:40.321Z,3.89
2018-11-23T00:03:44.642Z,3.88
2018-11-23T00:03:48.953Z,3.88
2018-11-23T00:03:53.260Z,3.88
2018-11-23T00:03:57.627Z,3.89
2018-11-23T00:04:01.932Z,3.88
2018-11-23T00:04:06.245Z,3.89
2018-11-23T00:04:10.562Z,3.89
2018-11-23T00:04:14.878Z,3.89
2018-11-23T00:04:19.186Z,3.89
2018-11-23T00:04:23.503Z,3.89
2018-11-23T00:04:27.717Z,3.89
2018-11-23T00:04:32.022Z,3.9
2018-11-23T00:04:36.336Z,3.9
2018-11-23T00:04:40.651Z,3.89
2018-11-23T00:04:44.983Z,3.89
2018-11-23T00:04:49.298Z,3.89
2018-11-23T00:04:53.607Z,3.89
2018-11-23T00:04:57.919Z,3.9
2018-11-23T00:05:02.231Z,3.89
2018-11-23T00:05:06.448Z,3.9
2018-11-23T00:05:10.770Z,3.91
2018-11-23T00:05:15.079Z,3.9
2018-11-23T00:05:19.385Z,3.91
2018-11-23T00:05:23.705Z,3.91
2018-11-23T00:05:28.028Z,3.9
2018-11-23T00:05:32.344Z,3.92
2018-11-23T00:05:36.657Z,3.91
2018-11-23T00:05:40.989Z,3.91
2018-11-23T00:05:45.301Z,3.92
2018-11-23T00:05:49.614Z,3.92
2018-11-23T00:05:53.927Z,3.91
2018-11-23T00:05:58.236Z,3.91
2018-11-23T00:06:02.554Z,3.91
2018-11-23T00:06:06.870Z,3.9
2018-11-23T00:06:11.181Z,3.9
2018-11-23T00:06:15.505Z,3.92
2018-11-23T00:06:19.848Z,3.92
2018-11-23T00:06:24.161Z,3.92
2018-11-23T00:06:28.471Z,3.92
2018-11-23T00:06:32.591Z,3.92
2018-11-23T00:06:36.905Z,3.92
2018-11-23T00:06:41.218Z,3.92
2018-11-23T00:06:45.531Z,3.92
2018-11-23T00:06:49.845Z,3.92
2018-11-23T00:06:54.169Z,3.92
2018-11-23T00:06:58.479Z,3.92
2018-11-23T00:07:02.845Z,3.92
2018-11-23T00:07:07.153Z,3.92
2018-11-23T00:07:11.469Z,3.91
2018-11-23T00:07:15.778Z,3.92
2018-11-23T00:07:20.096Z,3.92
2018-11-23T00:07:24.403Z,3.92
2018-11-23T00:07:28.724Z,3.91
2018-11-23T00:07:33.032Z,3.92
2018-11-23T00:07:37.345Z,3.92
2018-11-23T00:07:41.457Z,3.92
2018-11-23T00:07:45.773Z,3.93
2018-11-23T00:07:50.084Z,3.92
2018-11-23T00:07:54.402Z,3.91
2018-11-23T00:07:58.713Z,3.92
2018-11-23T00:08:03.031Z,3.92
2018-11-23T00:08:07.341Z,3.92
2018-11-23T00:08:11.653Z,3.91
2018-11-23T00:08:15.958Z,3.91
2018-11-23T00:08:20.175Z,3.9
2018-11-23T00:08:24.491Z,3.91
2018-11-23T00:08:28.798Z,3.91
2018-11-23T00:08:33.109Z,3.92
2018-11-23T00:08:37.421Z,3.91
2018-11-23T00:08:41.733Z,3.91
2018-11-23T00:08:46.054Z,3.91
2018-11-23T00:08:50.361Z,3.91
2018-11-23T00:08:54.675Z,3.91
2018-11-23T00:08:58.986Z,3.91
2018-11-23T00:09:03.502Z,3.9
2018-11-23T00:09:07.816Z,3.9
2018-11-23T00:09:12.133Z,3.91
2018-11-23T00:09:16.456Z,3.9
2018-11-23T00:09:20.765Z,3.9
2018-11-23T00:09:24.995Z,3.89
2018-11-23T00:09:29.307Z,3.89
2018-11-23T00:09:33.620Z,3.88
2018-11-23T00:09:37.929Z,3.87
2018-11-23T00:09:42.241Z,3.87
2018-11-23T00:09:46.551Z,3.87
2018-11-23T00:09:50.861Z,3.88
2018-11-23T00:09:55.170Z,3.86
2018-11-23T00:09:59.479Z,3.86
2018-11-23T00:10:03.793Z,3.86
2018-11-23T00:10:08.112Z,3.85
2018-11-23T00:10:13.476Z,3.85
2018-11-23T00:10:17.787Z,3.85
2018-11-23T00:10:22.108Z,3.84
2018-11-23T00:10:26.426Z,3.83
2018-11-23T00:10:30.761Z,3.82
2018-11-23T00:10:35.098Z,3.83
2018-11-23T00:10:39.411Z,3.82
2018-11-23T00:10:43.723Z,3.8
2018-11-23T00:10:48.029Z,3.8
2018-11-23T00:10:52.341Z,3.79
2018-11-23T00:10:56.649Z,3.79
2018-11-23T00:11:00.957Z,3.77
2018-11-23T00:11:05.269Z,3.77
2018-11-23T00:11:09.577Z,3.76
2018-11-23T00:11:13.888Z,3.75
2018-11-23T00:11:18.202Z,3.75
2018-11-23T00:11:22.514Z,3.73
2018-11-23T00:11:26.832Z,3.74
2018-11-23T00:11:31.082Z,3.72
2018-11-23T00:11:35.403Z,3.73
2018-11-23T00:11:39.716Z,3.71
2018-11-23T00:11:44.025Z,3.71
2018-11-23T00:11:48.331Z,3.71
2018-11-23T00:11:52.638Z,3.7
2018-11-23T00:11:56.859Z,3.69
2018-11-23T00:12:01.165Z,3.69
2018-11-23T00:12:05.635Z,3.69
2018-11-23T00:12:09.941Z,3.69
2018-11-23T00:12:14.257Z,3.68
2018-11-23T00:12:18.565Z,3.67
2018-11-23T00:12:22.874Z,3.67
2018-11-23T00:12:27.184Z,3.67
2018-11-23T00:12:31.494Z,3.67
2018-11-23T00:12:35.832Z,3.67
2018-11-23T00:12:40.159Z,3.66
2018-11-23T00:12:44.469Z,3.65
2018-11-23T00:12:48.790Z,3.64
2018-11-23T00:12:53.129Z,3.66
2018-11-23T00:12:57.437Z,3.63
2018-11-23T00:13:01.745Z,3.64
2018-11-23T00:13:06.119Z,3.64
2018-11-23T00:13:10.428Z,3.63
2018-11-23T00:13:14.773Z,3.62
2018-11-23T00:13:18.990Z,3.62
2018-11-23T00:13:23.309Z,3.62
2018-11-23T00:13:27.624Z,3.63
2018-11-23T00:13:31.927Z,3.62
2018-11-23T00:13:36.249Z,3.62
2018-11-23T00:13:40.567Z,3.63
2018-11-23T00:13:44.875Z,3.62
2018-11-23T00:13:49.230Z,3.61
2018-11-23T00:13:53.535Z,3.62
2018-11-23T00:13:57.847Z,3.61
2018-11-23T00:14:02.164Z,3.61
2018-11-23T00:14:06.479Z,3.62
2018-11-23T00:14:10.846Z,3.61
2018-11-23T00:14:15.156Z,3.62
2018-11-23T00:14:19.468Z,3.61
2018-11-23T00:14:23.775Z,3.61
2018-11-23T00:14:27.989Z,3.61
2018-11-23T00:14:32.298Z,3.61
2018-11-23T00:14:36.640Z,3.61
2018-11-23T00:14:40.961Z,3.61
2018-11-23T00:14:45.276Z,3.61
2018-11-23T00:14:49.590Z,3.61
2018-11-23T00:14:53.898Z,3.61
2018-11-23T00:14:58.214Z,3.61
2018-11-23T00:15:02.644Z,3.6
2018-11-23T00:15:06.968Z,3.61
2018-11-23T00:15:11.196Z,3.61
2018-11-23T00:15:15.519Z,3.61
2018-11-23T00:15:19.830Z,3.61
2018-11-23T00:15:24.162Z,3.6
2018-11-23T00:15:28.486Z,3.61
2018-11-23T00:15:32.794Z,3.62
2018-11-23T00:15:37.122Z,3.61
2018-11-23T00:15:41.433Z,3.62
2018-11-23T00:15:45.745Z,3.62
2018-11-23T00:15:50.061Z,3.62
2018-11-23T00:15:54.372Z,3.61
2018-11-23T00:15:58.684Z,3.62
2018-11-23T00:16:02.895Z,3.62
2018-11-23T00:16:07.206Z,3.62
2018-11-23T00:16:11.517Z,3.62
2018-11-23T00:16:15.825Z,3.63
2018-11-23T00:16:20.134Z,3.63
2018-11-23T00:16:24.443Z,3.63
2018-11-23T00:16:28.759Z,3.63
2018-11-23T00:16:32.979Z,3.63
2018-11-23T00:16:37.295Z,3.64
2018-11-23T00:16:41.617Z,3.64
2018-11-23T00:16:45.929Z,3.65
2018-11-23T00:16:50.243Z,3.63
2018-11-23T00:16:54.558Z,3.64
2018-11-23T00:16:58.866Z,3.64
2018-11-23T00:17:03.188Z,3.64
2018-11-23T00:17:07.515Z,3.65
2018-11-23T00:17:11.828Z,3.65
2018-11-23T00:17:16.137Z,3.66
2018-11-23T00:17:20.452Z,3.66
2018-11-23T00:17:24.763Z,3.66
2018-11-23T00:17:29.071Z,3.65
2018-11-23T00:17:33.378Z,3.66
2018-11-23T00:17:37.764Z,3.65
2018-11-23T00:17:42.070Z,3.66
2018-11-23T00:17:46.426Z,3.67
2018-11-23T00:17:50.736Z,3.66
2018-11-23T00:17:54.958Z,3.66
2018-11-23T00:17:59.275Z,3.67
2018-11-23T00:18:03.583Z,3.66
2018-11-23T00:18:07.897Z,3.66
2018-11-23T00:18:12.220Z,3.66
2018-11-23T00:18:16.443Z,3.66
2018-11-23T00:18:20.754Z,3.66
2018-11-23T00:18:25.069Z,3.66
2018-11-23T00:18:29.374Z,3.67
2018-11-23T00:18:33.690Z,3.67
2018-11-23T00:18:38.002Z,3.66
2018-11-23T00:18:42.315Z,3.67
2018-11-23T00:18:46.622Z,3.68
2018-11-23T00:18:50.932Z,3.67
2018-11-23T00:18:55.245Z,3.67
2018-11-23T00:18:59.560Z,3.68
2018-11-23T00:19:03.875Z,3.68
2018-11-23T00:19:08.189Z,3.67
2018-11-23T00:19:12.500Z,3.67
2018-11-23T00:19:16.816Z,3.68
2018-11-23T00:19:21.139Z,3.69
2018-11-23T00:19:25.445Z,3.69
2018-11-23T00:19:29.749Z,3.67
2018-11-23T00:19:34.058Z,3.68
2018-11-23T00:19:38.385Z,3.68
2018-11-23T00:19:42.694Z,3.68
2018-11-23T00:19:47.028Z,3.68
2018-11-23T00:19:51.346Z,3.68
2018-11-23T00:19:55.661Z,3.68
2018-11-23T00:19:59.969Z,3.68
2018-11-23T00:20:04.334Z,3.67
2018-11-23T00:20:08.651Z,3.67
2018-11-23T00:20:12.970Z,3.68
2018-11-23T00:20:17.294Z,3.68
2018-11-23T00:20:21.598Z,3.67
2018-11-23T00:20:25.918Z,3.68
2018-11-23T00:20:30.233Z,3.68
2018-11-23T00:20:34.540Z,3.67
2018-11-23T00:20:38.851Z,3.67
2018-11-23T00:20:43.166Z,3.67
2018-11-23T00:20:47.495Z,3.67
2018-11-23T00:20:51.810Z,3.68
2018-11-23T00:20:56.122Z,3.67
2018-11-23T00:21:00.437Z,3.66
2018-11-23T00:21:04.811Z,3.66
2018-11-23T00:21:09.127Z,3.66
2018-11-23T00:21:13.454Z,3.65
2018-11-23T00:21:17.767Z,3.67
2018-11-23T00:21:22.078Z,3.66
2018-11-23T00:21:26.390Z,3.64
2018-11-23T00:21:30.696Z,3.65
2018-11-23T00:21:34.914Z,3.63
2018-11-23T00:21:39.225Z,3.64
2018-11-23T00:21:43.536Z,3.63
2018-11-23T00:21:47.750Z,3.62
2018-11-23T00:21:52.064Z,3.61
2018-11-23T00:21:56.370Z,3.61
2018-11-23T00:22:00.681Z,3.6
2018-11-23T00:22:04.999Z,3.6
2018-11-23T00:22:09.308Z,3.6
2018-11-23T00:22:13.661Z,3.59
2018-11-23T00:22:17.967Z,3.57
2018-11-23T00:22:22.277Z,3.58
2018-11-23T00:22:26.585Z,3.57
2018-11-23T00:22:30.901Z,3.57
2018-11-23T00:22:35.205Z,3.56
2018-11-23T00:22:39.508Z,3.55
2018-11-23T00:22:43.815Z,3.55
2018-11-23T00:22:48.123Z,3.54
2018-11-23T00:22:52.434Z,3.54
2018-11-23T00:22:56.749Z,3.53
2018-11-23T00:23:01.062Z,3.53
2018-11-23T00:23:05.372Z,3.53
2018-11-23T00:23:09.682Z,3.52
2018-11-23T00:23:13.991Z,3.5
2018-11-23T00:23:18.293Z,3.5
2018-11-23T00:23:22.605Z,3.5
2018-11-23T00:23:26.917Z,3.49
2018-11-23T00:23:31.232Z,3.49
2018-11-23T00:23:35.540Z,3.48
2018-11-23T00:23:39.846Z,3.47
2018-11-23T00:23:44.150Z,3.46
2018-11-23T00:23:48.456Z,3.45
2018-11-23T00:23:52.765Z,3.45
2018-11-23T00:23:57.067Z,3.44
2018-11-23T00:24:01.379Z,3.44
2018-11-23T00:24:05.692Z,3.44
2018-11-23T00:24:10.011Z,3.43
2018-11-23T00:24:14.325Z,3.43
2018-11-23T00:24:18.632Z,3.42
2018-11-23T00:24:22.938Z,3.42
2018-11-23T00:24:27.311Z,3.4
2018-11-23T00:24:31.617Z,3.4
2018-11-23T00:24:35.923Z,3.39
2018-11-23T00:24:40.240Z,3.39
2018-11-23T00:24:44.551Z,3.38
2018-11-23T00:24:48.874Z,3.37
2018-11-23T00:24:53.229Z,3.36
2018-11-23T00:24:57.534Z,3.35
2018-11-23T00:25:02.006Z,3.35
2018-11-23T00:25:06.230Z,3.34
2018-11-23T00:25:10.451Z,3.33
2018-11-23T00:25:14.803Z,3.33
2018-11-23T00:25:19.119Z,3.33
2018-11-23T00:25:23.423Z,3.32
2018-11-23T00:25:27.743Z,3.32
2018-11-23T00:25:32.056Z,3.3
2018-11-23T00:25:36.363Z,3.3
2018-11-23T00:25:40.706Z,3.29
2018-11-23T00:25:45.835Z,3.29
2018-11-23T00:25:50.158Z,3.28
2018-11-23T00:25:54.472Z,3.28
2018-11-23T00:25:58.795Z,3.27
2018-11-23T00:26:03.118Z,3.27
2018-11-23T00:26:07.427Z,3.27
2018-11-23T00:26:11.733Z,3.26
2018-11-23T00:26:15.950Z,3.25
2018-11-23T00:26:20.170Z,3.24
2018-11-23T00:26:24.480Z,3.25
2018-11-23T00:26:28.795Z,3.24
2018-11-23T00:26:33.013Z,3.24
2018-11-23T00:26:37.320Z,3.24
2018-11-23T00:26:41.627Z,3.24
2018-11-23T00:26:45.933Z,3.23
2018-11-23T00:26:50.147Z,3.23
2018-11-23T00:26:54.360Z,3.24
2018-11-23T00:26:58.660Z,3.23
2018-11-23T00:27:02.969Z,3.24
2018-11-23T00:27:07.284Z,3.23
2018-11-23T00:27:11.606Z,3.23
2018-11-23T00:27:15.918Z,3.23
2018-11-23T00:27:20.238Z,3.23
2018-11-23T00:27:24.552Z,3.22
2018-11-23T00:27:28.856Z,3.22
2018-11-23T00:27:33.173Z,3.23
2018-11-23T00:27:37.519Z,3.22
2018-11-23T00:27:41.730Z,3.23
2018-11-23T00:27:45.993Z,3.22
2018-11-23T00:27:50.309Z,3.2
2018-11-23T00:27:54.618Z,3.21
2018-11-23T00:27:58.931Z,3.22
2018-11-23T00:28:03.219Z,3.21
2018-11-23T00:28:07.548Z,3.21
2018-11-23T00:28:11.863Z,3.2
2018-11-23T00:28:16.176Z,3.21
2018-11-23T00:28:20.485Z,3.21
2018-11-23T00:28:24.795Z,3.2
2018-11-23T00:28:29.124Z,3.2
2018-11-23T00:28:33.422Z,3.19
2018-11-23T00:28:37.728Z,3.19
2018-11-23T00:28:42.036Z,3.19
2018-11-23T00:28:46.394Z,3.18
2018-11-23T00:28:50.699Z,3.18
2018-11-23T00:28:55.012Z,3.18
2018-11-23T00:28:59.326Z,3.17
2018-11-23T00:29:03.634Z,3.16
2018-11-23T00:29:07.852Z,3.16
2018-11-23T00:29:12.167Z,3.17
2018-11-23T00:29:16.476Z,3.14
2018-11-23T00:29:20.786Z,3.14
2018-11-23T00:29:25.103Z,3.15
2018-11-23T00:29:29.413Z,3.13
2018-11-23T00:29:33.725Z,3.13
2018-11-23T00:29:38.036Z,3.13
2018-11-23T00:29:42.339Z,3.13
2018-11-23T00:29:46.650Z,3.13
2018-11-23T00:29:50.954Z,3.12
2018-11-23T00:29:55.274Z,3.11
2018-11-23T00:29:59.590Z,3.12
2018-11-23T00:30:03.923Z,3.12
2018-11-23T00:30:08.140Z,3.1
2018-11-23T00:30:12.454Z,3.11
2018-11-23T00:30:16.794Z,3.11
2018-11-23T00:30:21.106Z,3.09
2018-11-23T00:30:25.431Z,3.11
2018-11-23T00:30:29.765Z,3.1
2018-11-23T00:30:34.085Z,3.11
2018-11-23T00:30:38.394Z,3.1
2018-11-23T00:30:42.702Z,3.09
2018-11-23T00:30:46.917Z,3.1
2018-11-23T00:30:51.225Z,3.09
2018-11-23T00:30:55.535Z,3.09
2018-11-23T00:30:59.851Z,3.08
2018-11-23T00:31:04.091Z,3.08
2018-11-23T00:31:08.404Z,3.08
2018-11-23T00:31:12.712Z,3.08
2018-11-23T00:31:17.028Z,3.08
2018-11-23T00:31:21.334Z,3.07
2018-11-23T00:31:25.655Z,3.05
2018-11-23T00:31:29.966Z,3.06
2018-11-23T00:31:34.271Z,3.06
2018-11-23T00:31:38.488Z,3.05
2018-11-23T00:31:42.796Z,3.05
2018-11-23T00:31:47.105Z,3.05
2018-11-23T00:31:51.331Z,3.05
2018-11-23T00:31:55.646Z,3.04
2018-11-23T00:31:59.963Z,3.04
2018-11-23T00:32:04.272Z,3.04
2018-11-23T00:32:08.583Z,3.04
2018-11-23T00:32:12.904Z,3.04
2018-11-23T00:32:17.219Z,3.03
2018-11-23T00:32:21.527Z,3.03
2018-11-23T00:32:25.842Z,3.04
2018-11-23T00:32:30.153Z,3.03
2018-11-23T00:32:34.461Z,3.02
2018-11-23T00:32:38.770Z,3.04
2018-11-23T00:32:43.088Z,3.02
2018-11-23T00:32:47.414Z,3.03
2018-11-23T00:32:51.625Z,3.03
2018-11-23T00:32:55.931Z,3.02
2018-11-23T00:33:00.155Z,3.02
2018-11-23T00:33:04.470Z,3.02
2018-11-23T00:33:08.790Z,3.03
2018-11-23T00:33:13.009Z,3.04
2018-11-23T00:33:17.314Z,3.02
2018-11-23T00:33:21.624Z,3.04
2018-11-23T00:33:25.926Z,3.03
2018-11-23T00:33:30.239Z,3.04
2018-11-23T00:33:34.558Z,3.04
2018-11-23T00:33:38.876Z,3.03
2018-11-23T00:33:43.195Z,3.04
2018-11-23T00:33:47.509Z,3.04
2018-11-23T00:33:51.745Z,3.03
2018-11-23T00:33:56.060Z,3.03
2018-11-23T00:34:00.372Z,3.03
2018-11-23T00:34:04.699Z,3.03
2018-11-23T00:34:08.922Z,3.03
2018-11-23T00:34:13.235Z,3.04
2018-11-23T00:34:17.562Z,3.03
2018-11-23T00:34:21.873Z,3.03
2018-11-23T00:34:26.197Z,3.04
2018-11-23T00:34:30.505Z,3.03
2018-11-23T00:34:34.822Z,3.04
2018-11-23T00:34:39.127Z,3.03
2018-11-23T00:34:43.439Z,3.03
2018-11-23T00:34:47.747Z,3.03
2018-11-23T00:34:52.056Z,3.03
2018-11-23T00:34:56.361Z,3.03
2018-11-23T00:35:00.675Z,3.03
2018-11-23T00:35:04.991Z,3.02
2018-11-23T00:35:09.298Z,3.02
2018-11-23T00:35:13.615Z,3
2018-11-23T00:35:17.932Z,3
2018-11-23T00:35:22.251Z,3.01
2018-11-23T00:35:26.453Z,2.99
2018-11-23T00:35:30.768Z,2.99
2018-11-23T00:35:35.079Z,2.99
2018-11-23T00:35:39.402Z,2.99
2018-11-23T00:35:43.712Z,2.98
2018-11-23T00:35:48.024Z,2.98
2018-11-23T00:35:52.334Z,2.98
2018-11-23T00:35:56.648Z,2.97
2018-11-23T00:36:00.962Z,2.98
2018-11-23T00:36:05.273Z,2.98
2018-11-23T00:36:09.597Z,2.98
2018-11-23T00:36:13.922Z,2.98
2018-11-23T00:36:18.228Z,2.98
2018-11-23T00:36:22.536Z,2.97
2018-11-23T00:36:26.844Z,2.98
2018-11-23T00:36:31.145Z,2.98
2018-11-23T00:36:35.363Z,2.97
2018-11-23T00:36:39.675Z,2.98
2018-11-23T00:36:43.982Z,2.97
2018-11-23T00:36:48.292Z,2.97
2018-11-23T00:36:52.609Z,2.96
2018-11-23T00:36:56.919Z,2.96
2018-11-23T00:37:01.231Z,2.96
2018-11-23T00:37:05.530Z,2.94
2018-11-23T00:37:09.746Z,2.95
2018-11-23T00:37:14.060Z,2.94
2018-11-23T00:37:18.277Z,2.94
2018-11-23T00:37:22.623Z,2.94
2018-11-23T00:37:26.940Z,2.94
2018-11-23T00:37:31.252Z,2.94
2018-11-23T00:37:35.563Z,2.94
2018-11-23T00:37:39.888Z,2.94
2018-11-23T00:37:44.206Z,2.94
2018-11-23T00:37:48.533Z,2.94
2018-11-23T00:37:52.865Z,2.93
2018-11-23T00:37:57.176Z,2.93
2018-11-23T00:38:01.489Z,2.93
2018-11-23T00:38:05.803Z,2.93
2018-11-23T00:38:10.120Z,2.93
2018-11-23T00:38:14.442Z,2.93
2018-11-23T00:38:18.753Z,2.93
2018-11-23T00:38:23.069Z,2.93
2018-11-23T00:38:27.379Z,2.92
2018-11-23T00:38:31.694Z,2.93
2018-11-23T00:38:36.044Z,2.93
2018-11-23T00:38:40.265Z,2.93
2018-11-23T00:38:44.571Z,2.93
2018-11-23T00:38:48.877Z,2.93
2018-11-23T00:38:53.198Z,2.94
2018-11-23T00:38:57.505Z,2.94
2018-11-23T00:39:02.019Z,2.94
2018-11-23T00:39:06.330Z,2.94
2018-11-23T00:39:10.637Z,2.94
2018-11-23T00:39:14.948Z,2.94
2018-11-23T00:39:19.265Z,2.94
2018-11-23T00:39:23.576Z,2.94
2018-11-23T00:39:27.921Z,2.94
2018-11-23T00:39:32.264Z,2.94
2018-11-23T00:39:36.573Z,2.94
2018-11-23T00:39:40.784Z,2.94
2018-11-23T00:39:45.089Z,2.94
2018-11-23T00:39:49.395Z,2.94
2018-11-23T00:39:53.713Z,2.95
2018-11-23T00:39:57.924Z,2.95
2018-11-23T00:40:02.248Z,2.95
2018-11-23T00:40:06.558Z,2.96
2018-11-23T00:40:10.882Z,2.95
2018-11-23T00:40:15.201Z,2.96
2018-11-23T00:40:19.519Z,2.96
2018-11-23T00:40:23.840Z,2.96
2018-11-23T00:40:28.145Z,2.96
2018-11-23T00:40:32.462Z,2.96
2018-11-23T00:40:36.821Z,2.96
2018-11-23T00:40:41.043Z,2.97
2018-11-23T00:40:45.349Z,2.97
2018-11-23T00:40:49.664Z,2.97
2018-11-23T00:40:53.976Z,2.98
2018-11-23T00:40:58.278Z,2.97
2018-11-23T00:41:02.602Z,2.98
2018-11-23T00:41:06.910Z,2.98
2018-11-23T00:41:11.218Z,2.99
2018-11-23T00:41:15.573Z,2.99
2018-11-23T00:41:19.885Z,2.98
2018-11-23T00:41:24.194Z,2.99
2018-11-23T00:41:28.514Z,2.99
2018-11-23T00:41:32.822Z,3
2018-11-23T00:41:37.127Z,3
2018-11-23T00:41:41.438Z,3.01
2018-11-23T00:41:45.746Z,3.01
2018-11-23T00:41:50.069Z,3.01
2018-11-23T00:41:54.385Z,3.01
2018-11-23T00:41:58.686Z,3.01
2018-11-23T00:42:02.996Z,3.02
2018-11-23T00:42:07.312Z,3.02
2018-11-23T00:42:11.621Z,3.03
2018-11-23T00:42:15.930Z,3.03
2018-11-23T00:42:20.236Z,3.03
2018-11-23T00:42:24.547Z,3.03
2018-11-23T00:42:28.857Z,3.03
2018-11-23T00:42:33.162Z,3.04
2018-11-23T00:42:37.385Z,3.03
2018-11-23T00:42:41.703Z,3.05
2018-11-23T00:42:46.016Z,3.05
2018-11-23T00:42:50.374Z,3.06
2018-11-23T00:42:54.694Z,3.04
2018-11-23T00:42:59.019Z,3.06
2018-11-23T00:43:03.233Z,3.06
2018-11-23T00:43:07.558Z,3.06
2018-11-23T00:43:11.877Z,3.05
2018-11-23T00:43:16.197Z,3.05
2018-11-23T00:43:20.504Z,3.05
2018-11-23T00:43:24.806Z,3.05
2018-11-23T00:43:29.114Z,3.05
2018-11-23T00:43:33.429Z,3.06
2018-11-23T00:43:37.739Z,3.06
2018-11-23T00:43:42.052Z,3.06
2018-11-23T00:43:46.360Z,3.05
2018-11-23T00:43:50.712Z,3.06
2018-11-23T00:43:55.023Z,3.05
2018-11-23T00:43:59.341Z,3.05
2018-11-23T00:44:03.658Z,3.06
2018-11-23T00:44:07.979Z,3.06
2018-11-23T00:44:12.298Z,3.06
2018-11-23T00:44:16.509Z,3.06
2018-11-23T00:44:20.821Z,3.06
2018-11-23T00:44:25.132Z,3.06
2018-11-23T00:44:29.446Z,3.06
2018-11-23T00:44:33.755Z,3.06
2018-11-23T00:44:38.065Z,3.06
2018-11-23T00:44:42.387Z,3.06
2018-11-23T00:44:46.705Z,3.07
2018-11-23T00:44:51.017Z,3.07
2018-11-23T00:44:55.319Z,3.08
2018-11-23T00:44:59.631Z,3.08
2018-11-23T00:45:03.942Z,3.07
2018-11-23T00:45:08.259Z,3.07
2018-11-23T00:45:12.567Z,3.07
2018-11-23T00:45:16.888Z,3.08
2018-11-23T00:45:21.204Z,3.07
2018-11-23T00:45:25.517Z,3.07
2018-11-23T00:45:29.836Z,3.07
2018-11-23T00:45:34.137Z,3.07
2018-11-23T00:45:45.854Z,3.06
2018-11-23T00:45:50.073Z,3.06
2018-11-23T00:45:54.380Z,3.06
2018-11-23T00:45:58.690Z,3.06
2018-11-23T00:46:03.031Z,3.06
2018-11-23T00:46:07.346Z,3.06
2018-11-23T00:46:11.652Z,3.05
2018-11-23T00:46:15.960Z,3.06
2018-11-23T00:46:20.277Z,3.05
2018-11-23T00:46:24.592Z,3.05
2018-11-23T00:46:28.959Z,3.04
2018-11-23T00:46:33.266Z,3.05
2018-11-23T00:46:37.487Z,3.04
2018-11-23T00:46:41.801Z,3.05
2018-11-23T00:46:46.117Z,3.04
2018-11-23T00:46:50.421Z,3.05
2018-11-23T00:46:54.731Z,3.04
2018-11-23T00:46:59.048Z,3.04
2018-11-23T00:47:03.261Z,3.04
2018-11-23T00:47:07.577Z,3.04
2018-11-23T00:47:11.890Z,3.05
2018-11-23T00:47:16.211Z,3.04
2018-11-23T00:47:20.512Z,3.04
2018-11-23T00:47:24.824Z,3.04
2018-11-23T00:47:29.781Z,3.03
2018-11-23T00:47:34.091Z,3.04
2018-11-23T00:47:38.400Z,3.04
2018-11-23T00:47:42.707Z,3.04
2018-11-23T00:47:47.015Z,3.05
2018-11-23T00:47:51.322Z,3.04
2018-11-23T00:47:55.536Z,3.04
2018-11-23T00:47:59.843Z,3.05
2018-11-23T00:48:04.165Z,3.05
2018-11-23T00:48:08.486Z,3.04
2018-11-23T00:48:12.808Z,3.04
2018-11-23T00:48:17.166Z,3.04
2018-11-23T00:48:21.473Z,3.05
2018-11-23T00:48:25.788Z,3.05
2018-11-23T00:48:30.109Z,3.04
2018-11-23T00:48:34.412Z,3.05
2018-11-23T00:48:38.723Z,3.04
2018-11-23T00:48:43.038Z,3.05
2018-11-23T00:48:47.252Z,3.05
2018-11-23T00:48:51.568Z,3.05
2018-11-23T00:48:55.879Z,3.05
2018-11-23T00:49:00.185Z,3.05
2018-11-23T00:49:04.495Z,3.05
2018-11-23T00:49:08.712Z,3.05
2018-11-23T00:49:13.031Z,3.05
2018-11-23T00:49:17.346Z,3.04
2018-11-23T00:49:21.655Z,3.04
2018-11-23T00:49:25.961Z,3.04
2018-11-23T00:49:30.275Z,3.04
2018-11-23T00:49:34.493Z,3.04
2018-11-23T00:49:38.812Z,3.03
2018-11-23T00:49:43.127Z,3.04
2018-11-23T00:49:47.434Z,3.04
2018-11-23T00:49:51.741Z,3.03
2018-11-23T00:49:56.051Z,3.03
2018-11-23T00:50:00.262Z,3.03
2018-11-23T00:50:04.591Z,3.02
2018-11-23T00:50:08.906Z,3.02
2018-11-23T00:50:13.214Z,3.01
2018-11-23T00:50:17.522Z,3.01
2018-11-23T00:50:21.839Z,3.02
2018-11-23T00:50:26.177Z,3.01
2018-11-23T00:50:30.489Z,3
2018-11-23T00:50:34.808Z,3
2018-11-23T00:50:39.117Z,3
2018-11-23T00:50:43.422Z,3
2018-11-23T00:50:47.747Z,2.99
2018-11-23T00:50:52.058Z,2.99
2018-11-23T00:50:56.364Z,2.99
2018-11-23T00:51:00.679Z,2.99
2018-11-23T00:51:04.996Z,2.99
2018-11-23T00:51:09.302Z,2.98
2018-11-23T00:51:13.613Z,2.98
2018-11-23T00:51:17.926Z,2.97
2018-11-23T00:51:22.244Z,2.97
2018-11-23T00:51:26.553Z,2.97
2018-11-23T00:51:30.869Z,2.97
2018-11-23T00:51:35.174Z,2.96
2018-11-23T00:51:39.487Z,2.96
2018-11-23T00:51:43.790Z,2.96
2018-11-23T00:51:48.102Z,2.96
2018-11-23T00:51:52.404Z,2.95
2018-11-23T00:51:56.719Z,2.94
2018-11-23T00:52:01.031Z,2.94
2018-11-23T00:52:05.342Z,2.93
2018-11-23T00:52:09.648Z,2.93
2018-11-23T00:52:13.964Z,2.92
2018-11-23T00:52:18.274Z,2.92
2018-11-23T00:52:22.577Z,2.93
2018-11-23T00:52:26.886Z,2.92
2018-11-23T00:52:31.103Z,2.92
2018-11-23T00:52:35.411Z,2.91
2018-11-23T00:52:39.727Z,2.91
2018-11-23T00:52:44.049Z,2.91
2018-11-23T00:52:48.362Z,2.91
2018-11-23T00:52:52.685Z,2.9
2018-11-23T00:52:57.018Z,2.89
2018-11-23T00:53:01.348Z,2.9
2018-11-23T00:53:05.664Z,2.89
2018-11-23T00:53:09.975Z,2.89
2018-11-23T00:53:14.290Z,2.89
2018-11-23T00:53:18.507Z,2.88
2018-11-23T00:53:22.823Z,2.88
2018-11-23T00:53:27.042Z,2.88
2018-11-23T00:53:31.351Z,2.88
2018-11-23T00:53:35.654Z,2.87
2018-11-23T00:53:39.983Z,2.87
2018-11-23T00:53:44.304Z,2.87
2018-11-23T00:53:48.607Z,2.87
2018-11-23T00:53:52.917Z,2.86
2018-11-23T00:53:57.227Z,2.86
2018-11-23T00:54:01.560Z,2.85
2018-11-23T00:54:05.777Z,2.84
2018-11-23T00:54:10.093Z,2.84
2018-11-23T00:54:14.410Z,2.84
2018-11-23T00:54:18.722Z,2.84
2018-11-23T00:54:23.047Z,2.83
2018-11-23T00:54:27.348Z,2.83
2018-11-23T00:54:31.654Z,2.82
2018-11-23T00:54:35.967Z,2.82
2018-11-23T00:54:40.278Z,2.82
2018-11-23T00:54:44.681Z,2.81
2018-11-23T00:54:48.988Z,2.8
2018-11-23T00:54:53.293Z,2.79
2018-11-23T00:54:57.626Z,2.8
2018-11-23T00:55:01.945Z,2.79
2018-11-23T00:55:06.259Z,2.78
2018-11-23T00:55:10.587Z,2.78
2018-11-23T00:55:14.906Z,2.77
2018-11-23T00:55:19.250Z,2.78
2018-11-23T00:55:23.562Z,2.77
2018-11-23T00:55:27.874Z,2.76
2018-11-23T00:55:32.257Z,2.77
2018-11-23T00:55:36.574Z,2.76
2018-11-23T00:55:40.931Z,2.76
2018-11-23T00:55:45.249Z,2.76
2018-11-23T00:55:49.557Z,2.76
2018-11-23T00:55:53.880Z,2.76
2018-11-23T00:55:58.198Z,2.76
2018-11-23T00:56:02.416Z,2.75
2018-11-23T00:56:06.729Z,2.75
2018-11-23T00:56:11.045Z,2.76
2018-11-23T00:56:15.349Z,2.75
2018-11-23T00:56:19.654Z,2.76
2018-11-23T00:56:23.958Z,2.76
2018-11-23T00:56:28.269Z,2.74
2018-11-23T00:56:32.582Z,2.76
2018-11-23T00:56:36.894Z,2.76
2018-11-23T00:56:41.198Z,2.76
2018-11-23T00:56:45.507Z,2.76
2018-11-23T00:56:49.814Z,2.76
2018-11-23T00:56:54.167Z,2.76
2018-11-23T00:56:58.378Z,2.76
2018-11-23T00:57:02.697Z,2.76
2018-11-23T00:57:07.015Z,2.76
2018-11-23T00:57:11.328Z,2.76
2018-11-23T00:57:15.646Z,2.77
2018-11-23T00:57:19.955Z,2.77
2018-11-23T00:57:24.271Z,2.77
2018-11-23T00:57:28.584Z,2.78
2018-11-23T00:57:32.898Z,2.77
2018-11-23T00:57:37.204Z,2.78